sensor_id;sensor_type;location;lat;lon;timestamp;P1;P2;P0
55043;PMS5003;54902;50.420;18.854;2023-04-07T00:00:16;31;31;19
55043;PMS5003;54902;50.420;18.854;2023-04-07T00:00:47;23;20;10
55043;PMS5003;54902;50.420;18.854;2023-04-07T00:01:18;23;20;10
55043;PMS5003;54902;50.420;18.854;2023-04-07T00:01:51;23;20;10
55043;PMS5003;54902;50.420;18.854;2023-04-07T00:02:22;23;20;10
55043;PMS5003;54902;50.420;18.854;2023-04-07T00:02:53;23;20;10
55043;PMS5003;54902;50.420;18.854;2023-04-07T00:03:24;23;20;10
55043;PMS5003;54902;50.420;18.854;2023-04-07T00:03:55;23;20;10
55043;PMS5003;54902;50.420;18.854;2023-04-07T00:04:26;23;20;10
55043;PMS5003;54902;50.420;18.854;2023-04-07T00:04:57;23;20;10
55043;PMS5003;54902;50.420;18.854;2023-04-07T00:05:28;23;20;10
55043;PMS5003;54902;50.420;18.854;2023-04-07T00:05:59;34;31;16
55043;PMS5003;54902;50.420;18.854;2023-04-07T00:06:30;34;31;16
55043;PMS5003;54902;50.420;18.854;2023-04-07T00:07:01;34;31;16
55043;PMS5003;54902;50.420;18.854;2023-04-07T00:07:32;34;31;16
55043;PMS5003;54902;50.420;18.854;2023-04-07T00:08:03;34;31;16
55043;PMS5003;54902;50.420;18.854;2023-04-07T00:08:34;34;31;16
55043;PMS5003;54902;50.420;18.854;2023-04-07T00:09:06;34;31;16
55043;PMS5003;54902;50.420;18.854;2023-04-07T00:09:36;34;31;16
55043;PMS5003;54902;50.420;18.854;2023-04-07T00:10:08;34;31;16
55043;PMS5003;54902;50.420;18.854;2023-04-07T00:10:40;34;31;16
55043;PMS5003;54902;50.420;18.854;2023-04-07T00:11:11;34;31;16
55043;PMS5003;54902;50.420;18.854;2023-04-07T00:11:41;34;31;16
55043;PMS5003;54902;50.420;18.854;2023-04-07T00:12:12;34;31;16
55043;PMS5003;54902;50.420;18.854;2023-04-07T00:12:43;34;31;16
55043;PMS5003;54902;50.420;18.854;2023-04-07T00:13:14;34;31;16
55043;PMS5003;54902;50.420;18.854;2023-04-07T00:13:45;34;31;16
55043;PMS5003;54902;50.420;18.854;2023-04-07T00:14:16;34;31;16
55043;PMS5003;54902;50.420;18.854;2023-04-07T00:14:47;34;31;16
55043;PMS5003;54902;50.420;18.854;2023-04-07T00:15:18;34;31;16
55043;PMS5003;54902;50.420;18.854;2023-04-07T00:15:49;34;31;16
55043;PMS5003;54902;50.420;18.854;2023-04-07T00:16:20;34;31;16
55043;PMS5003;54902;50.420;18.854;2023-04-07T00:16:52;34;31;16
55043;PMS5003;54902;50.420;18.854;2023-04-07T00:17:23;34;31;16
55043;PMS5003;54902;50.420;18.854;2023-04-07T00:17:54;34;31;16
55043;PMS5003;54902;50.420;18.854;2023-04-07T00:18:25;34;31;16
55043;PMS5003;54902;50.420;18.854;2023-04-07T00:18:56;34;31;16
55043;PMS5003;54902;50.420;18.854;2023-04-07T00:19:27;31;29;15
55043;PMS5003;54902;50.420;18.854;2023-04-07T00:19:58;31;29;15
55043;PMS5003;54902;50.420;18.854;2023-04-07T00:20:29;31;29;15
55043;PMS5003;54902;50.420;18.854;2023-04-07T00:21:00;31;29;15
55043;PMS5003;54902;50.420;18.854;2023-04-07T00:21:31;37;35;19
55043;PMS5003;54902;50.420;18.854;2023-04-07T00:22:02;37;35;19
55043;PMS5003;54902;50.420;18.854;2023-04-07T00:22:32;37;35;19
55043;PMS5003;54902;50.420;18.854;2023-04-07T00:23:03;37;35;19
55043;PMS5003;54902;50.420;18.854;2023-04-07T00:23:34;37;35;19
55043;PMS5003;54902;50.420;18.854;2023-04-07T00:24:06;37;35;19
55043;PMS5003;54902;50.420;18.854;2023-04-07T00:24:37;37;35;19
55043;PMS5003;54902;50.420;18.854;2023-04-07T00:25:08;37;35;19
55043;PMS5003;54902;50.420;18.854;2023-04-07T00:25:40;37;35;19
55043;PMS5003;54902;50.420;18.854;2023-04-07T00:26:11;37;35;19
55043;PMS5003;54902;50.420;18.854;2023-04-07T00:26:42;45;43;24
55043;PMS5003;54902;50.420;18.854;2023-04-07T00:27:12;45;43;24
55043;PMS5003;54902;50.420;18.854;2023-04-07T00:27:43;45;43;24
55043;PMS5003;54902;50.420;18.854;2023-04-07T00:28:15;45;43;24
55043;PMS5003;54902;50.420;18.854;2023-04-07T00:28:45;45;43;24
55043;PMS5003;54902;50.420;18.854;2023-04-07T00:29:16;31;30;18
55043;PMS5003;54902;50.420;18.854;2023-04-07T00:29:47;31;30;18
55043;PMS5003;54902;50.420;18.854;2023-04-07T00:30:18;31;30;18
55043;PMS5003;54902;50.420;18.854;2023-04-07T00:30:49;31;30;18
55043;PMS5003;54902;50.420;18.854;2023-04-07T00:31:20;31;30;18
55043;PMS5003;54902;50.420;18.854;2023-04-07T00:31:51;34;34;20
55043;PMS5003;54902;50.420;18.854;2023-04-07T00:32:22;34;34;20
55043;PMS5003;54902;50.420;18.854;2023-04-07T00:32:53;34;34;20
55043;PMS5003;54902;50.420;18.854;2023-04-07T00:33:24;34;34;20
55043;PMS5003;54902;50.420;18.854;2023-04-07T00:33:55;34;34;20
55043;PMS5003;54902;50.420;18.854;2023-04-07T00:34:26;34;34;20
55043;PMS5003;54902;50.420;18.854;2023-04-07T00:34:57;34;34;20
55043;PMS5003;54902;50.420;18.854;2023-04-07T00:35:28;34;34;20
55043;PMS5003;54902;50.420;18.854;2023-04-07T00:35:59;34;34;20
55043;PMS5003;54902;50.420;18.854;2023-04-07T00:36:30;34;34;20
55043;PMS5003;54902;50.420;18.854;2023-04-07T00:37:02;40;40;24
55043;PMS5003;54902;50.420;18.854;2023-04-07T00:37:35;40;40;24
55043;PMS5003;54902;50.420;18.854;2023-04-07T00:38:06;40;40;24
55043;PMS5003;54902;50.420;18.854;2023-04-07T00:38:37;40;40;24
55043;PMS5003;54902;50.420;18.854;2023-04-07T00:39:08;40;40;24
55043;PMS5003;54902;50.420;18.854;2023-04-07T00:39:39;40;40;24
55043;PMS5003;54902;50.420;18.854;2023-04-07T00:40:10;40;40;24
55043;PMS5003;54902;50.420;18.854;2023-04-07T00:40:41;40;40;24
55043;PMS5003;54902;50.420;18.854;2023-04-07T00:41:12;40;40;24
55043;PMS5003;54902;50.420;18.854;2023-04-07T00:41:43;40;40;24
55043;PMS5003;54902;50.420;18.854;2023-04-07T00:42:15;40;40;24
55043;PMS5003;54902;50.420;18.854;2023-04-07T00:42:46;40;40;24
55043;PMS5003;54902;50.420;18.854;2023-04-07T00:43:17;40;40;24
55043;PMS5003;54902;50.420;18.854;2023-04-07T00:43:49;40;40;24
55043;PMS5003;54902;50.420;18.854;2023-04-07T00:44:21;40;40;24
55043;PMS5003;54902;50.420;18.854;2023-04-07T00:44:52;40;40;24
55043;PMS5003;54902;50.420;18.854;2023-04-07T00:45:23;40;40;24
55043;PMS5003;54902;50.420;18.854;2023-04-07T00:45:53;40;40;24
55043;PMS5003;54902;50.420;18.854;2023-04-07T00:46:25;40;40;24
55043;PMS5003;54902;50.420;18.854;2023-04-07T00:46:56;40;40;24
55043;PMS5003;54902;50.420;18.854;2023-04-07T00:47:28;40;40;24
55043;PMS5003;54902;50.420;18.854;2023-04-07T00:47:59;40;40;24
55043;PMS5003;54902;50.420;18.854;2023-04-07T00:48:30;40;40;24
55043;PMS5003;54902;50.420;18.854;2023-04-07T00:49:01;40;40;24
55043;PMS5003;54902;50.420;18.854;2023-04-07T00:49:32;40;40;24
55043;PMS5003;54902;50.420;18.854;2023-04-07T00:50:04;40;40;24
55043;PMS5003;54902;50.420;18.854;2023-04-07T00:50:35;40;40;24
55043;PMS5003;54902;50.420;18.854;2023-04-07T00:51:06;40;40;24
55043;PMS5003;54902;50.420;18.854;2023-04-07T00:51:37;40;40;24
55043;PMS5003;54902;50.420;18.854;2023-04-07T00:52:08;40;40;24
55043;PMS5003;54902;50.420;18.854;2023-04-07T00:52:43;40;40;24
55043;PMS5003;54902;50.420;18.854;2023-04-07T00:53:15;40;40;24
55043;PMS5003;54902;50.420;18.854;2023-04-07T00:53:46;27;25;13
55043;PMS5003;54902;50.420;18.854;2023-04-07T00:54:18;27;25;13
55043;PMS5003;54902;50.420;18.854;2023-04-07T00:54:50;27;25;13
55043;PMS5003;54902;50.420;18.854;2023-04-07T00:55:21;27;25;13
55043;PMS5003;54902;50.420;18.854;2023-04-07T00:55:52;27;25;13
55043;PMS5003;54902;50.420;18.854;2023-04-07T00:56:22;27;25;13
55043;PMS5003;54902;50.420;18.854;2023-04-07T00:56:53;27;25;13
55043;PMS5003;54902;50.420;18.854;2023-04-07T00:57:24;27;25;13
55043;PMS5003;54902;50.420;18.854;2023-04-07T00:57:56;37;34;20
55043;PMS5003;54902;50.420;18.854;2023-04-07T00:58:27;37;34;20
55043;PMS5003;54902;50.420;18.854;2023-04-07T00:58:58;37;34;20
55043;PMS5003;54902;50.420;18.854;2023-04-07T00:59:29;37;34;20
55043;PMS5003;54902;50.420;18.854;2023-04-07T01:00:01;37;34;20
55043;PMS5003;54902;50.420;18.854;2023-04-07T01:00:42;37;34;20
55043;PMS5003;54902;50.420;18.854;2023-04-07T01:01:21;37;34;20
55043;PMS5003;54902;50.420;18.854;2023-04-07T01:01:57;37;34;20
55043;PMS5003;54902;50.420;18.854;2023-04-07T01:02:40;37;34;20
55043;PMS5003;54902;50.420;18.854;2023-04-07T01:04:46;39;36;21
55043;PMS5003;54902;50.420;18.854;2023-04-07T01:06:06;39;36;21
55043;PMS5003;54902;50.420;18.854;2023-04-07T01:06:39;39;36;21
55043;PMS5003;54902;50.420;18.854;2023-04-07T01:07:18;39;36;21
55043;PMS5003;54902;50.420;18.854;2023-04-07T01:08:41;39;36;21
55043;PMS5003;54902;50.420;18.854;2023-04-07T01:09:24;39;36;21
55043;PMS5003;54902;50.420;18.854;2023-04-07T01:10:06;39;36;21
55043;PMS5003;54902;50.420;18.854;2023-04-07T01:11:23;39;36;21
55043;PMS5003;54902;50.420;18.854;2023-04-07T01:13:27;39;36;21
55043;PMS5003;54902;50.420;18.854;2023-04-07T01:14:02;39;36;21
55043;PMS5003;54902;50.420;18.854;2023-04-07T01:14:39;39;36;21
55043;PMS5003;54902;50.420;18.854;2023-04-07T01:15:16;39;36;21
55043;PMS5003;54902;50.420;18.854;2023-04-07T01:15:53;39;36;21
55043;PMS5003;54902;50.420;18.854;2023-04-07T01:16:29;39;36;21
55043;PMS5003;54902;50.420;18.854;2023-04-07T01:17:01;39;36;21
55043;PMS5003;54902;50.420;18.854;2023-04-07T01:17:36;39;36;21
55043;PMS5003;54902;50.420;18.854;2023-04-07T01:18:14;39;36;21
55043;PMS5003;54902;50.420;18.854;2023-04-07T01:18:53;39;36;21
55043;PMS5003;54902;50.420;18.854;2023-04-07T01:20:06;39;36;21
55043;PMS5003;54902;50.420;18.854;2023-04-07T01:20:42;39;36;21
55043;PMS5003;54902;50.420;18.854;2023-04-07T01:21:16;39;36;21
55043;PMS5003;54902;50.420;18.854;2023-04-07T01:21:48;39;36;21
55043;PMS5003;54902;50.420;18.854;2023-04-07T01:22:27;39;36;21
55043;PMS5003;54902;50.420;18.854;2023-04-07T01:23:04;39;36;21
55043;PMS5003;54902;50.420;18.854;2023-04-07T01:26:29;39;36;21
55043;PMS5003;54902;50.420;18.854;2023-04-07T01:29:24;39;36;21
55043;PMS5003;54902;50.420;18.854;2023-04-07T01:30:00;39;36;21
55043;PMS5003;54902;50.420;18.854;2023-04-07T01:30:37;39;36;21
55043;PMS5003;54902;50.420;18.854;2023-04-07T01:31:11;39;36;21
55043;PMS5003;54902;50.420;18.854;2023-04-07T01:31:44;39;36;21
55043;PMS5003;54902;50.420;18.854;2023-04-07T01:32:18;39;36;21
55043;PMS5003;54902;50.420;18.854;2023-04-07T01:32:50;39;36;21
55043;PMS5003;54902;50.420;18.854;2023-04-07T01:33:23;39;36;21
55043;PMS5003;54902;50.420;18.854;2023-04-07T01:33:56;39;36;21
55043;PMS5003;54902;50.420;18.854;2023-04-07T01:34:31;39;36;21
55043;PMS5003;54902;50.420;18.854;2023-04-07T01:35:03;39;36;21
55043;PMS5003;54902;50.420;18.854;2023-04-07T01:35:39;39;36;21
55043;PMS5003;54902;50.420;18.854;2023-04-07T01:36:12;39;36;21
55043;PMS5003;54902;50.420;18.854;2023-04-07T01:36:45;39;36;21
55043;PMS5003;54902;50.420;18.854;2023-04-07T01:37:19;39;36;21
55043;PMS5003;54902;50.420;18.854;2023-04-07T01:37:52;39;36;21
55043;PMS5003;54902;50.420;18.854;2023-04-07T01:38:24;39;36;21
55043;PMS5003;54902;50.420;18.854;2023-04-07T01:38:57;39;36;21
55043;PMS5003;54902;50.420;18.854;2023-04-07T01:39:29;39;36;21
55043;PMS5003;54902;50.420;18.854;2023-04-07T01:40:01;39;36;21
55043;PMS5003;54902;50.420;18.854;2023-04-07T01:40:34;39;36;21
55043;PMS5003;54902;50.420;18.854;2023-04-07T01:41:07;39;36;21
55043;PMS5003;54902;50.420;18.854;2023-04-07T01:41:40;39;36;21
55043;PMS5003;54902;50.420;18.854;2023-04-07T01:42:13;39;36;21
55043;PMS5003;54902;50.420;18.854;2023-04-07T01:42:46;39;36;21
55043;PMS5003;54902;50.420;18.854;2023-04-07T01:43:20;39;36;21
55043;PMS5003;54902;50.420;18.854;2023-04-07T01:43:52;39;36;21
55043;PMS5003;54902;50.420;18.854;2023-04-07T01:44:24;39;36;21
55043;PMS5003;54902;50.420;18.854;2023-04-07T01:44:57;39;36;21
55043;PMS5003;54902;50.420;18.854;2023-04-07T01:45:30;39;36;21
55043;PMS5003;54902;50.420;18.854;2023-04-07T01:46:05;39;36;21
55043;PMS5003;54902;50.420;18.854;2023-04-07T01:46:36;39;36;21
55043;PMS5003;54902;50.420;18.854;2023-04-07T01:47:07;39;36;21
55043;PMS5003;54902;50.420;18.854;2023-04-07T01:47:39;39;36;21
55043;PMS5003;54902;50.420;18.854;2023-04-07T01:48:11;39;36;21
55043;PMS5003;54902;50.420;18.854;2023-04-07T01:48:43;39;36;21
55043;PMS5003;54902;50.420;18.854;2023-04-07T01:49:14;39;36;21
55043;PMS5003;54902;50.420;18.854;2023-04-07T01:49:46;39;36;21
55043;PMS5003;54902;50.420;18.854;2023-04-07T01:50:19;39;36;21
55043;PMS5003;54902;50.420;18.854;2023-04-07T01:50:51;35;32;18
55043;PMS5003;54902;50.420;18.854;2023-04-07T01:51:23;35;32;18
55043;PMS5003;54902;50.420;18.854;2023-04-07T01:51:56;30;29;15
55043;PMS5003;54902;50.420;18.854;2023-04-07T01:52:29;30;29;15
55043;PMS5003;54902;50.420;18.854;2023-04-07T01:53:00;30;29;15
55043;PMS5003;54902;50.420;18.854;2023-04-07T01:53:33;30;29;15
55043;PMS5003;54902;50.420;18.854;2023-04-07T01:54:08;30;29;15
55043;PMS5003;54902;50.420;18.854;2023-04-07T01:54:39;30;29;15
55043;PMS5003;54902;50.420;18.854;2023-04-07T01:55:10;30;29;15
55043;PMS5003;54902;50.420;18.854;2023-04-07T01:55:41;30;29;15
55043;PMS5003;54902;50.420;18.854;2023-04-07T01:56:13;30;29;15
55043;PMS5003;54902;50.420;18.854;2023-04-07T01:56:45;30;29;15
55043;PMS5003;54902;50.420;18.854;2023-04-07T01:57:16;43;40;21
55043;PMS5003;54902;50.420;18.854;2023-04-07T01:57:47;43;40;21
55043;PMS5003;54902;50.420;18.854;2023-04-07T01:58:18;43;40;21
55043;PMS5003;54902;50.420;18.854;2023-04-07T01:58:49;43;40;21
55043;PMS5003;54902;50.420;18.854;2023-04-07T01:59:20;43;40;21
55043;PMS5003;54902;50.420;18.854;2023-04-07T01:59:51;43;40;21
55043;PMS5003;54902;50.420;18.854;2023-04-07T02:00:23;43;40;21
55043;PMS5003;54902;50.420;18.854;2023-04-07T02:00:53;43;40;21
55043;PMS5003;54902;50.420;18.854;2023-04-07T02:01:25;43;40;21
55043;PMS5003;54902;50.420;18.854;2023-04-07T02:01:56;43;40;21
55043;PMS5003;54902;50.420;18.854;2023-04-07T02:02:27;43;40;21
55043;PMS5003;54902;50.420;18.854;2023-04-07T02:03:01;43;40;21
55043;PMS5003;54902;50.420;18.854;2023-04-07T02:04:30;23;22;14
55043;PMS5003;54902;50.420;18.854;2023-04-07T02:05:08;21;20;13
55043;PMS5003;54902;50.420;18.854;2023-04-07T02:05:43;21;20;13
55043;PMS5003;54902;50.420;18.854;2023-04-07T02:06:17;21;20;13
55043;PMS5003;54902;50.420;18.854;2023-04-07T02:06:55;21;20;13
55043;PMS5003;54902;50.420;18.854;2023-04-07T02:07:52;21;20;13
55043;PMS5003;54902;50.420;18.854;2023-04-07T02:08:12;21;20;13
55043;PMS5003;54902;50.420;18.854;2023-04-07T02:08:50;30;28;16
55043;PMS5003;54902;50.420;18.854;2023-04-07T02:09:26;30;28;16
55043;PMS5003;54902;50.420;18.854;2023-04-07T02:10:01;30;28;16
55043;PMS5003;54902;50.420;18.854;2023-04-07T02:10:36;30;28;16
55043;PMS5003;54902;50.420;18.854;2023-04-07T02:11:08;30;28;16
55043;PMS5003;54902;50.420;18.854;2023-04-07T02:11:42;30;28;16
55043;PMS5003;54902;50.420;18.854;2023-04-07T02:12:15;30;28;16
55043;PMS5003;54902;50.420;18.854;2023-04-07T02:12:46;28;26;15
55043;PMS5003;54902;50.420;18.854;2023-04-07T02:13:19;28;26;15
55043;PMS5003;54902;50.420;18.854;2023-04-07T02:13:51;28;26;15
55043;PMS5003;54902;50.420;18.854;2023-04-07T02:14:24;28;28;14
55043;PMS5003;54902;50.420;18.854;2023-04-07T02:14:56;28;28;14
55043;PMS5003;54902;50.420;18.854;2023-04-07T02:15:28;25;20;10
55043;PMS5003;54902;50.420;18.854;2023-04-07T02:16:01;25;20;10
55043;PMS5003;54902;50.420;18.854;2023-04-07T02:16:33;25;20;10
55043;PMS5003;54902;50.420;18.854;2023-04-07T02:17:05;25;20;10
55043;PMS5003;54902;50.420;18.854;2023-04-07T02:17:37;25;20;10
55043;PMS5003;54902;50.420;18.854;2023-04-07T02:18:11;25;20;10
55043;PMS5003;54902;50.420;18.854;2023-04-07T02:18:44;25;20;10
55043;PMS5003;54902;50.420;18.854;2023-04-07T02:19:16;25;20;10
55043;PMS5003;54902;50.420;18.854;2023-04-07T02:19:48;35;31;14
55043;PMS5003;54902;50.420;18.854;2023-04-07T02:20:22;35;31;14
55043;PMS5003;54902;50.420;18.854;2023-04-07T02:20:53;35;31;14
55043;PMS5003;54902;50.420;18.854;2023-04-07T02:21:25;35;31;14
55043;PMS5003;54902;50.420;18.854;2023-04-07T02:22:00;35;31;14
55043;PMS5003;54902;50.420;18.854;2023-04-07T02:22:36;27;25;12
55043;PMS5003;54902;50.420;18.854;2023-04-07T02:23:08;27;25;12
55043;PMS5003;54902;50.420;18.854;2023-04-07T02:23:39;27;25;12
55043;PMS5003;54902;50.420;18.854;2023-04-07T02:24:11;27;25;12
55043;PMS5003;54902;50.420;18.854;2023-04-07T02:24:42;27;25;12
55043;PMS5003;54902;50.420;18.854;2023-04-07T02:25:51;25;24;13
55043;PMS5003;54902;50.420;18.854;2023-04-07T02:26:25;25;24;13
55043;PMS5003;54902;50.420;18.854;2023-04-07T02:26:57;25;24;13
55043;PMS5003;54902;50.420;18.854;2023-04-07T02:27:30;25;24;13
55043;PMS5003;54902;50.420;18.854;2023-04-07T02:28:01;25;24;13
55043;PMS5003;54902;50.420;18.854;2023-04-07T02:28:32;25;24;13
55043;PMS5003;54902;50.420;18.854;2023-04-07T02:29:03;25;24;13
55043;PMS5003;54902;50.420;18.854;2023-04-07T02:29:35;25;24;13
55043;PMS5003;54902;50.420;18.854;2023-04-07T02:30:06;25;24;13
55043;PMS5003;54902;50.420;18.854;2023-04-07T02:30:38;28;28;15
55043;PMS5003;54902;50.420;18.854;2023-04-07T02:31:09;28;28;15
55043;PMS5003;54902;50.420;18.854;2023-04-07T02:31:42;28;28;15
55043;PMS5003;54902;50.420;18.854;2023-04-07T02:32:13;28;28;15
55043;PMS5003;54902;50.420;18.854;2023-04-07T02:32:46;28;28;15
55043;PMS5003;54902;50.420;18.854;2023-04-07T02:33:17;28;28;15
55043;PMS5003;54902;50.420;18.854;2023-04-07T02:33:48;28;28;15
55043;PMS5003;54902;50.420;18.854;2023-04-07T02:34:19;28;28;15
55043;PMS5003;54902;50.420;18.854;2023-04-07T02:34:50;28;28;15
55043;PMS5003;54902;50.420;18.854;2023-04-07T02:35:21;28;28;15
55043;PMS5003;54902;50.420;18.854;2023-04-07T02:35:53;28;28;15
55043;PMS5003;54902;50.420;18.854;2023-04-07T02:36:24;28;28;15
55043;PMS5003;54902;50.420;18.854;2023-04-07T02:36:56;28;28;15
55043;PMS5003;54902;50.420;18.854;2023-04-07T02:37:27;25;23;13
55043;PMS5003;54902;50.420;18.854;2023-04-07T02:37:58;25;23;13
55043;PMS5003;54902;50.420;18.854;2023-04-07T02:38:30;25;23;13
55043;PMS5003;54902;50.420;18.854;2023-04-07T02:39:01;25;23;13
55043;PMS5003;54902;50.420;18.854;2023-04-07T02:39:33;25;23;13
55043;PMS5003;54902;50.420;18.854;2023-04-07T02:40:04;25;23;13
55043;PMS5003;54902;50.420;18.854;2023-04-07T02:40:36;25;23;13
55043;PMS5003;54902;50.420;18.854;2023-04-07T02:41:07;39;34;20
55043;PMS5003;54902;50.420;18.854;2023-04-07T02:41:38;39;34;20
55043;PMS5003;54902;50.420;18.854;2023-04-07T02:42:09;39;34;20
55043;PMS5003;54902;50.420;18.854;2023-04-07T02:42:40;39;34;20
55043;PMS5003;54902;50.420;18.854;2023-04-07T02:43:11;39;34;20
55043;PMS5003;54902;50.420;18.854;2023-04-07T02:43:42;39;34;20
55043;PMS5003;54902;50.420;18.854;2023-04-07T02:44:12;39;34;20
55043;PMS5003;54902;50.420;18.854;2023-04-07T02:44:43;39;34;20
55043;PMS5003;54902;50.420;18.854;2023-04-07T02:45:14;39;34;20
55043;PMS5003;54902;50.420;18.854;2023-04-07T02:45:45;39;34;20
55043;PMS5003;54902;50.420;18.854;2023-04-07T02:46:16;43;37;22
55043;PMS5003;54902;50.420;18.854;2023-04-07T02:46:47;43;37;22
55043;PMS5003;54902;50.420;18.854;2023-04-07T02:47:18;43;37;22
55043;PMS5003;54902;50.420;18.854;2023-04-07T02:47:49;43;37;22
55043;PMS5003;54902;50.420;18.854;2023-04-07T02:48:20;43;37;22
55043;PMS5003;54902;50.420;18.854;2023-04-07T02:48:51;43;37;22
55043;PMS5003;54902;50.420;18.854;2023-04-07T02:49:22;33;29;17
55043;PMS5003;54902;50.420;18.854;2023-04-07T02:49:53;33;29;17
55043;PMS5003;54902;50.420;18.854;2023-04-07T02:50:24;33;29;17
55043;PMS5003;54902;50.420;18.854;2023-04-07T02:50:55;33;29;17
55043;PMS5003;54902;50.420;18.854;2023-04-07T02:51:26;34;32;19
55043;PMS5003;54902;50.420;18.854;2023-04-07T02:51:58;34;32;19
55043;PMS5003;54902;50.420;18.854;2023-04-07T02:52:29;34;32;19
55043;PMS5003;54902;50.420;18.854;2023-04-07T02:53:00;34;32;19
55043;PMS5003;54902;50.420;18.854;2023-04-07T02:53:31;34;32;19
55043;PMS5003;54902;50.420;18.854;2023-04-07T02:54:01;34;32;19
55043;PMS5003;54902;50.420;18.854;2023-04-07T02:54:32;34;32;19
55043;PMS5003;54902;50.420;18.854;2023-04-07T02:55:03;34;32;19
55043;PMS5003;54902;50.420;18.854;2023-04-07T02:55:36;34;32;19
55043;PMS5003;54902;50.420;18.854;2023-04-07T02:56:07;34;32;19
55043;PMS5003;54902;50.420;18.854;2023-04-07T02:56:38;43;40;24
55043;PMS5003;54902;50.420;18.854;2023-04-07T02:57:09;43;40;24
55043;PMS5003;54902;50.420;18.854;2023-04-07T02:57:40;43;40;24
55043;PMS5003;54902;50.420;18.854;2023-04-07T02:58:11;43;40;24
55043;PMS5003;54902;50.420;18.854;2023-04-07T02:58:41;43;40;24
55043;PMS5003;54902;50.420;18.854;2023-04-07T02:59:12;43;40;24
55043;PMS5003;54902;50.420;18.854;2023-04-07T02:59:43;30;29;17
55043;PMS5003;54902;50.420;18.854;2023-04-07T03:00:15;30;29;17
55043;PMS5003;54902;50.420;18.854;2023-04-07T03:00:47;30;29;17
55043;PMS5003;54902;50.420;18.854;2023-04-07T03:01:18;30;29;17
55043;PMS5003;54902;50.420;18.854;2023-04-07T03:01:49;31;26;14
55043;PMS5003;54902;50.420;18.854;2023-04-07T03:02:20;31;26;14
55043;PMS5003;54902;50.420;18.854;2023-04-07T03:02:51;31;26;14
55043;PMS5003;54902;50.420;18.854;2023-04-07T03:03:22;31;26;14
55043;PMS5003;54902;50.420;18.854;2023-04-07T03:03:53;31;26;14
55043;PMS5003;54902;50.420;18.854;2023-04-07T03:04:24;31;26;14
55043;PMS5003;54902;50.420;18.854;2023-04-07T03:04:55;31;26;14
55043;PMS5003;54902;50.420;18.854;2023-04-07T03:05:26;31;26;14
55043;PMS5003;54902;50.420;18.854;2023-04-07T03:05:57;31;26;14
55043;PMS5003;54902;50.420;18.854;2023-04-07T03:06:28;31;26;14
55043;PMS5003;54902;50.420;18.854;2023-04-07T03:07:00;25;25;14
55043;PMS5003;54902;50.420;18.854;2023-04-07T03:07:31;25;25;14
55043;PMS5003;54902;50.420;18.854;2023-04-07T03:08:02;25;25;14
55043;PMS5003;54902;50.420;18.854;2023-04-07T03:08:33;25;25;14
55043;PMS5003;54902;50.420;18.854;2023-04-07T03:09:05;25;25;14
55043;PMS5003;54902;50.420;18.854;2023-04-07T03:09:36;25;25;14
55043;PMS5003;54902;50.420;18.854;2023-04-07T03:10:07;25;25;14
55043;PMS5003;54902;50.420;18.854;2023-04-07T03:10:38;25;25;14
55043;PMS5003;54902;50.420;18.854;2023-04-07T03:11:09;25;25;14
55043;PMS5003;54902;50.420;18.854;2023-04-07T03:11:40;25;25;14
55043;PMS5003;54902;50.420;18.854;2023-04-07T03:12:12;27;23;12
55043;PMS5003;54902;50.420;18.854;2023-04-07T03:12:43;27;23;12
55043;PMS5003;54902;50.420;18.854;2023-04-07T03:13:13;27;23;12
55043;PMS5003;54902;50.420;18.854;2023-04-07T03:13:48;27;23;12
55043;PMS5003;54902;50.420;18.854;2023-04-07T03:14:20;27;23;12
55043;PMS5003;54902;50.420;18.854;2023-04-07T03:14:51;27;23;12
55043;PMS5003;54902;50.420;18.854;2023-04-07T03:15:22;27;23;12
55043;PMS5003;54902;50.420;18.854;2023-04-07T03:15:53;27;23;12
55043;PMS5003;54902;50.420;18.854;2023-04-07T03:16:24;27;23;12
55043;PMS5003;54902;50.420;18.854;2023-04-07T03:16:55;27;23;12
55043;PMS5003;54902;50.420;18.854;2023-04-07T03:17:26;39;36;18
55043;PMS5003;54902;50.420;18.854;2023-04-07T03:17:57;39;36;18
55043;PMS5003;54902;50.420;18.854;2023-04-07T03:18:28;39;36;18
55043;PMS5003;54902;50.420;18.854;2023-04-07T03:18:59;39;36;18
55043;PMS5003;54902;50.420;18.854;2023-04-07T03:19:30;39;36;18
55043;PMS5003;54902;50.420;18.854;2023-04-07T03:20:01;26;24;12
55043;PMS5003;54902;50.420;18.854;2023-04-07T03:20:32;26;24;12
55043;PMS5003;54902;50.420;18.854;2023-04-07T03:21:03;26;24;12
55043;PMS5003;54902;50.420;18.854;2023-04-07T03:21:37;26;24;12
55043;PMS5003;54902;50.420;18.854;2023-04-07T03:22:09;26;24;12
55043;PMS5003;54902;50.420;18.854;2023-04-07T03:22:40;23;22;13
55043;PMS5003;54902;50.420;18.854;2023-04-07T03:23:11;23;22;13
55043;PMS5003;54902;50.420;18.854;2023-04-07T03:23:42;23;22;13
55043;PMS5003;54902;50.420;18.854;2023-04-07T03:24:13;23;22;13
55043;PMS5003;54902;50.420;18.854;2023-04-07T03:24:44;23;22;13
55043;PMS5003;54902;50.420;18.854;2023-04-07T03:25:15;23;22;13
55043;PMS5003;54902;50.420;18.854;2023-04-07T03:25:47;23;22;13
55043;PMS5003;54902;50.420;18.854;2023-04-07T03:26:17;23;22;13
55043;PMS5003;54902;50.420;18.854;2023-04-07T03:26:48;23;22;13
55043;PMS5003;54902;50.420;18.854;2023-04-07T03:27:20;23;22;13
55043;PMS5003;54902;50.420;18.854;2023-04-07T03:27:51;28;27;16
55043;PMS5003;54902;50.420;18.854;2023-04-07T03:28:22;28;27;16
55043;PMS5003;54902;50.420;18.854;2023-04-07T03:28:53;28;27;16
55043;PMS5003;54902;50.420;18.854;2023-04-07T03:29:24;28;27;16
55043;PMS5003;54902;50.420;18.854;2023-04-07T03:29:55;28;27;16
55043;PMS5003;54902;50.420;18.854;2023-04-07T03:30:27;28;27;16
55043;PMS5003;54902;50.420;18.854;2023-04-07T03:30:58;28;27;16
55043;PMS5003;54902;50.420;18.854;2023-04-07T03:31:29;28;27;16
55043;PMS5003;54902;50.420;18.854;2023-04-07T03:32:00;23;23;13
55043;PMS5003;54902;50.420;18.854;2023-04-07T03:32:31;23;23;13
55043;PMS5003;54902;50.420;18.854;2023-04-07T03:33:02;14;14;6
55043;PMS5003;54902;50.420;18.854;2023-04-07T03:33:33;14;14;6
55043;PMS5003;54902;50.420;18.854;2023-04-07T03:34:05;14;14;6
55043;PMS5003;54902;50.420;18.854;2023-04-07T03:34:36;14;14;6
55043;PMS5003;54902;50.420;18.854;2023-04-07T03:35:07;14;14;6
55043;PMS5003;54902;50.420;18.854;2023-04-07T03:35:38;14;14;6